• Join FlightAware (Why Join?)
  • Login
  • US Flag 
08:37PM EST


 

Airport Tracker/Info


-or-


 

Live Flight TrackerFlight Track Log ✈ ASQ4421 ✈ 27-Apr-2012 ✈ KIAH - KHSV

Flight Track Log - Related Links

Times and Time Zones

All times are in EDT time to prevent confusion due to time zone crossing. See the ASQ4421 flight status page for this flight to view local times or setup timezone preferences in your user account.

Time Position Orientation Groundspeed Altitude Reporting Facility
EDT Latitude Longitude Course Direction KTS MPH feet Rate Location/Type
05:14PM 29.9622 -95.3458 126° Southeast 154 177 600  Level Houston Center
05:15PM 29.9183 -95.2772 122° Southeast 201 231 3,500 1,320 Climbing Houston Center
05:16PM 29.8844 -95.2136 127° Southeast 244 281 4,000 960 Climbing Houston Center
05:17PM 29.8383 -95.1428 126° Southeast 260 299 5,600 1,860 Climbing Houston Center
05:18PM 29.7942 -95.0717 99° East 259 298 8,100 2,160 Climbing Houston Center
05:20PM 29.7800 -94.9683 68° East 296 341 10,300 1,560 Climbing Houston Center
05:21PM 29.8114 -94.8786 70° East 341 392 11,500 1,080 Climbing Houston Center
05:22PM 29.8453 -94.7717 69° East 353 406 12,500 1,200 Climbing Houston Center
05:24PM 29.9189 -94.5464 69° East 370 426 15,200 1,260 Climbing Houston Center
05:25PM 29.9525 -94.4442 70° East 370 426 16,300 1,200 Climbing Houston Center
05:26PM 29.9903 -94.3231 79° East 377 434 17,700 1,380 Climbing Houston Center
05:27PM 30.0114 -94.2011 83° East 382 440 19,100 1,320 Climbing Houston Center
05:28PM 30.0242 -94.0719 82° East 388 447 20,400 1,320 Climbing Houston Center
05:29PM 30.0389 -93.9453 81° East 394 453 21,800 1,380 Climbing Houston Center
05:30PM 30.0556 -93.8208 83° East 394 453 23,200 1,200 Climbing Houston Center
05:31PM 30.0703 -93.6892 83° East 399 459 24,300 1,080 Climbing Houston Center
05:32PM 30.0847 -93.5597 83° East 405 466 25,400 1,200 Climbing Houston Center
05:33PM 30.1014 -93.4089 81° East 415 478 26,700 1,140 Climbing Houston Center
05:34PM 30.1197 -93.2722 81° East 425 489 27,700 1,020 Climbing Houston Center
05:35PM 30.1378 -93.1406 64° Northeast 425 489 28,800 1,020 Climbing Houston Center
05:36PM 30.1892 -93.0164 58° Northeast 420 483 29,800 900 Climbing Houston Center
05:37PM 30.2508 -92.9017 57° Northeast 414 476 30,700 900 Climbing Houston Center
05:38PM 30.3167 -92.7847 58° Northeast 419 482 31,600 900 Climbing Houston Center
05:39PM 30.3822 -92.6650 58° Northeast 426 490 32,500 900 Climbing Houston Center
05:40PM 30.4478 -92.5450 59° Northeast 431 496 33,400 780 Climbing Houston Center
05:41PM 30.5047 -92.4347 58° Northeast 436 502 34,100 780 Climbing Houston Center
05:42PM 30.5681 -92.3147 57° Northeast 436 502 35,000 420 Climbing Houston Center
05:43PM 30.6356 -92.1919 59° Northeast 436 502 35,000  Level Houston Center
05:44PM 30.7047 -92.0594 58° Northeast 450 518 35,000  Level Houston Center
05:45PM 30.7739 -91.9294 58° Northeast 467 537 35,000  Level Houston Center
05:46PM 30.8450 -91.7964 57° Northeast 472 543 35,000  Level Houston Center
05:47PM 30.9267 -91.6489 59° Northeast 480 552 35,000  Level Houston Center
05:48PM 30.9953 -91.5133 57° Northeast 480 552 35,000  Level Houston Center
05:49PM 31.0681 -91.3822 58° Northeast 480 552 35,000  Level Houston Center
05:50PM 31.1389 -91.2486 60° Northeast 480 552 35,000  Level Houston Center
05:51PM 31.2072 -91.1125 59° Northeast 480 552 35,000  Level Houston Center
05:53PM 31.3789 -90.7831 58° Northeast 489 563 35,000  Level Memphis Center
05:54PM 31.4442 -90.6592 58° Northeast 489 563 35,000  Level Memphis Center
05:55PM 31.5131 -90.5281 59° Northeast 489 563 35,000  Level Memphis Center
05:56PM 31.5822 -90.3939 59° Northeast 489 563 35,000  Level Memphis Center
05:57PM 31.6531 -90.2550 60° Northeast 489 563 35,000  Level Memphis Center
05:58PM 31.7197 -90.1206 58° Northeast 489 563 35,000  Level Memphis Center
05:59PM 31.7925 -89.9808 60° Northeast 489 563 35,000  Level Memphis Center
06:00PM 31.8608 -89.8436 60° Northeast 489 563 35,000  Level Memphis Center
06:01PM 31.9292 -89.7064 59° Northeast 489 563 35,000  Level Memphis Center
06:02PM 31.9992 -89.5711 60° Northeast 489 563 35,000  Level Memphis Center
06:03PM 32.0672 -89.4331 59° Northeast 489 563 35,000  Level Memphis Center
06:04PM 32.1350 -89.2975 60° Northeast 484 557 35,000  Level Memphis Center
06:05PM 32.2089 -89.1469 59° Northeast 484 557 35,000  Level Memphis Center
06:06PM 32.2764 -89.0133 60° Northeast 484 557 35,000  Level Memphis Center
06:07PM 32.3436 -88.8769 56° Northeast 484 557 35,000  Level Memphis Center
06:08PM 32.4192 -88.7453 49° Northeast 477 549 35,000  Level Memphis Center
06:10PM 32.5572 -88.5533 51° Northeast 480 552 35,000  Level Atlanta Center
06:11PM 32.6367 -88.4367 52° Northeast 469 540 35,000  Level Atlanta Center
06:12PM 32.7292 -88.2956 51° Northeast 469 540 35,000  Level Atlanta Center
06:13PM 32.8106 -88.1761 51° Northeast 475 547 35,000  Level Atlanta Center
06:14PM 32.8961 -88.0514 50° Northeast 475 547 35,000  Level Atlanta Center
06:15PM 32.9814 -87.9317 53° Northeast 475 547 35,000 -240 Level Atlanta Center
06:16PM 33.0539 -87.8183 51° Northeast 475 547 34,600 -960 Descending Atlanta Center
06:17PM 33.1367 -87.6953 52° Northeast 475 547 33,100 -1,500 Descending Atlanta Center
06:18PM 33.2197 -87.5697 50° Northeast 480 552 31,600 -1,500 Descending Atlanta Center
06:19PM 33.3067 -87.4439 52° Northeast 485 558 30,100 -1,500 Descending Atlanta Center
06:20PM 33.3917 -87.3131 51° Northeast 485 558 28,600 -1,500 Descending Atlanta Center
06:21PM 33.4764 -87.1892 52° Northeast 485 558 27,100 -2,040 Descending Atlanta Center
06:22PM 33.5611 -87.0603 47° Northeast 485 558 24,500 -2,880 Descending Atlanta Center
06:23PM 33.6472 -86.9483 10° North 471 542 21,300 -2,940 Descending Atlanta Center
06:25PM 33.8514 -86.9056 357° North 416 479 16,300 -2,700 Descending Memphis Center
06:26PM 33.9558 -86.9114 357° North 389 448 13,800 -2,460 Descending Memphis Center
06:27PM 34.0625 -86.9172 358° North 379 436 11,400 -1,500 Descending Memphis Center
06:28PM 34.1625 -86.9208 359° North 374 430 10,900 -240 Descending Memphis Center
06:29PM 34.2544 -86.9219 360° North 338 389 11,000 -1,440 Climbing Memphis Center
06:30PM 34.3339 -86.9214 North 301 346 8,100 -2,400 Descending Memphis Center
06:31PM 34.4089 -86.9183 North 276 318 6,200 -1,080 Descending Memphis Center
06:32PM 34.4817 -86.9128 North 271 312 6,000 -360 Descending Memphis Center
06:33PM 34.5589 -86.9097 North 271 312 5,500 -960 Descending Memphis Center
06:34PM 34.6297 -86.9069 North 271 312 4,100 -1,380 Descending Memphis Center
06:35PM 34.6964 -86.9017 74° East 257 296 2,800 -780 Descending Memphis Center
06:36PM 34.7111 -86.8378 74° East 179 206 2,600 -240 Descending Memphis Center